Latest Weather Observations for Cape Naturaliste

IDW60801

Issued at 4:32 am WST Saturday 20 December 2014 (issued every 30 minutes, with the page automatically refreshed every 10 minutes)

About weather observations | Map of weather stations | Latest weather observations for WA | Other Formats
Station Details ID: 009519 Name: CAPE NATURALISTE Lat: -33.54 Lon: 115.02 Height: 109.0 m
Data from the previous 72 hours. | See also: Recent months at Cape Naturaliste
Date/Time
WST
Temp
°C
App
Temp
°C
Dew
Point
Rel
Hum
%
Delta-T
°C
Wind Press
QNH
hPa
Press
MSL
hPa
Rain
since 9 am
mm
Dir
 
Spd
km/h
Gust
km/h
Spd
kts
Gust
kts
20/04:30am 16.7 11.6 14.7 88 1.2 SSW 35 48 19 26 1008.7 1008.4 0.0
20/04:00am 16.5 11.9 14.5 88 1.2 SSW 32 44 17 24 1008.5 1008.2 0.0
20/03:30am 16.4 12.1 14.4 88 1.1 SSW 30 41 16 22 1008.4 1008.1 0.0
20/03:00am 16.4 12.4 14.2 87 1.3 SSW 28 39 15 21 1008.3 1008.0 0.0
20/02:30am 16.3 12.6 14.0 86 1.3 SSW 26 33 14 18 1008.5 1008.2 0.0
20/02:00am 16.3 12.9 13.8 85 1.4 SSW 24 33 13 18 1008.8 1008.5 0.0
20/01:30am 16.3 13.3 13.8 85 1.4 SSW 22 32 12 17 1009.2 1009.0 0.0
20/01:00am 16.5 12.7 13.6 83 1.6 SSW 26 35 14 19 1009.7 1009.4 0.0
20/12:30am 16.9 13.2 14.0 83 1.7 SSW 26 35 14 19 1010.2 1009.9 0.0
20/12:00am 16.8 14.2 13.7 82 1.8 SW 20 30 11 16 1010.7 1010.4 0.0
 
Date/Time
WST
Temp
°C
App
Temp
°C
Dew
Point
Rel
Hum
%
Delta-T
°C
Wind Press
QNH
hPa
Press
MSL
hPa
Rain
since 9 am
mm
Dir
 
Spd
km/h
Gust
km/h
Spd
kts
Gust
kts
19/11:30pm 17.0 14.4 13.7 81 1.9 SW 20 28 11 15 1011.0 1010.7 0.0
19/11:00pm 17.4 14.8 13.7 79 2.1 SSW 20 28 11 15 1011.2 1010.9 0.0
19/10:30pm 17.5 14.8 13.4 77 2.3 SSW 20 28 11 15 1011.3 1011.0 0.0
19/10:00pm 17.6 15.4 13.3 76 2.4 SSW 17 22 9 12 1011.6 1011.3 0.0
19/09:30pm 17.5 16.0 13.0 75 2.5 SSW 13 24 7 13 1011.3 1011.0 0.0
19/09:00pm 17.7 14.9 12.6 72 2.9 SSW 19 28 10 15 1010.9 1010.6 0.0
19/08:30pm 18.4 14.3 12.6 69 3.3 SSW 26 37 14 20 1010.5 1010.2 0.0
19/08:00pm 19.0 14.6 13.0 68 3.4 S 28 39 15 21 1010.1 1009.8 0.0
19/07:30pm 20.2 13.7 12.9 63 4.2 SSW 39 50 21 27 1009.7 1009.4 0.0
19/07:08pm 21.5 16.4 13.2 59 4.8 SSW 32 50 17 27 1009.7 1009.4 0.0
19/07:00pm 22.1 17.5 13.5 58 5.0 S 30 41 16 22 1009.7 1009.4 0.0
19/06:30pm 22.4 18.4 15.3 64 4.3 SSW 30 39 16 21 1009.6 1009.3 0.0
19/06:00pm 22.2 17.0 15.5 66 4.0 SSW 37 50 20 27 1009.6 1009.3 0.0
19/05:30pm 23.0 17.5 15.8 64 4.4 SSW 39 48 21 26 1009.6 1009.3 0.0
19/05:00pm 24.0 19.5 16.3 62 4.7 SSW 35 46 19 25 1009.7 1009.4 0.0
19/04:30pm 23.9 19.5 16.7 64 4.4 SSW 35 48 19 26 1010.1 1009.8 0.0
19/04:00pm 24.5 20.8 16.0 59 5.2 SSW 30 43 16 23 1010.6 1010.3 0.0
19/03:30pm 24.4 19.8 15.1 56 5.6 SSW 33 43 18 23 1011.0 1010.7 0.0
19/03:00pm 27.2 23.1 14.9 47 7.5 SSW 30 41 16 22 1011.1 1010.8 0.0
19/02:30pm 28.4 25.2 14.3 42 8.5 SSW 24 33 13 18 1011.5 1011.2 0.0
19/02:00pm 28.3 25.2 14.5 43 8.4 SSW 24 33 13 18 1011.9 1011.6 0.0
19/01:30pm 26.5 23.7 14.3 47 7.3 SSW 22 32 12 17 1012.4 1012.1 0.0
19/01:00pm 26.1 22.9 14.2 48 7.1 SSW 24 33 13 18 1013.0 1012.7 0.0
19/12:30pm 25.1 21.4 13.9 49 6.6 SSW 26 35 14 19 1013.4 1013.1 0.0
19/12:00pm 24.4 21.2 14.2 53 6.0 SW 24 32 13 17 1014.0 1013.7 0.0
19/11:30am 24.2 21.1 13.4 51 6.3 SW 22 30 12 16 1014.3 1014.0 0.0
19/11:00am 23.3 19.7 12.0 49 6.4 SW 22 30 12 16 1014.6 1014.3 0.0
19/10:30am 23.6 20.5 11.6 47 6.8 SW 19 26 10 14 1014.8 1014.5 0.0
19/10:00am 25.5 23.8 9.7 37 8.7 SSW 9 17 5 9 1014.9 1014.6 0.0
19/09:30am 26.6 21.8 9.0 33 9.7 ESE 24 33 13 18 1014.9 1014.6 0.0
19/09:00am 25.1 19.7 9.4 37 8.6 ESE 28 37 15 20 1015.0 1014.7 0.0
19/08:30am 23.4 18.2 9.0 40 7.8 ESE 26 35 14 19 1015.3 1015.0 0.0
19/08:00am 21.5 16.2 8.4 43 6.9 ESE 26 35 14 19 1015.5 1015.2 0.0
19/07:30am 20.0 14.5 9.0 49 5.8 ESE 28 37 15 20 1015.3 1015.0 0.0
19/07:00am 18.5 12.9 8.7 53 5.1 ESE 28 39 15 21 1015.4 1015.1 0.0
19/06:30am 17.5 11.3 9.4 59 4.3 ESE 32 41 17 22 1015.2 1014.9 0.0
19/06:00am 15.8 9.5 9.0 64 3.5 ESE 32 37 17 20 1015.1 1014.8 0.0
19/05:30am 14.1 9.3 8.9 71 2.6 ESE 24 32 13 17 1015.2 1014.9 0.0
19/05:00am 13.8 9.0 8.8 72 2.5 ESE 24 33 13 18 1015.1 1014.8 0.0
19/04:30am 14.0 8.8 9.0 72 2.5 SE 26 30 14 16 1015.0 1014.7 0.0
19/04:00am 14.2 9.9 9.4 73 2.5 SE 22 30 12 16 1015.1 1014.8 0.0
19/03:30am 14.4 9.7 9.4 72 2.6 SE 24 33 13 18 1015.0 1014.7 0.0
19/03:00am 14.7 10.1 9.7 72 2.6 SE 24 32 13 17 1014.8 1014.5 0.0
19/02:30am 15.1 10.2 9.9 71 2.7 SSE 26 33 14 18 1015.0 1014.7 0.0
19/02:00am 15.2 10.3 10.0 71 2.7 SE 26 37 14 20 1015.1 1014.8 0.0
19/01:30am 15.5 9.9 10.1 70 2.8 SE 30 39 16 21 1015.0 1014.7 0.0
19/01:00am 15.9 10.3 10.2 69 3.0 SE 30 41 16 22 1015.2 1014.9 0.0
19/12:30am 16.2 10.6 10.3 68 3.1 SE 30 41 16 22 1015.6 1015.3 0.0
19/12:00am 16.0 10.0 10.1 68 3.1 SSE 32 46 17 25 1015.8 1015.5 0.0
 
Date/Time
WST
Temp
°C
App
Temp
°C
Dew
Point
Rel
Hum
%
Delta-T
°C
Wind Press
QNH
hPa
Press
MSL
hPa
Rain
since 9 am
mm
Dir
 
Spd
km/h
Gust
km/h
Spd
kts
Gust
kts
18/11:30pm 16.0 10.7 9.9 67 3.2 SSE 28 44 15 24 1016.2 1015.9 0.0
18/11:00pm 15.8 12.2 9.9 68 3.1 S 19 32 10 17 1016.5 1016.2 0.0
18/10:30pm 15.2 12.4 10.0 71 2.7 SSW 15 32 8 17 1017.0 1016.7 0.0
18/10:00pm 15.2 13.3 10.4 73 2.5 SSW 11 19 6 10 1017.2 1017.0 0.0
18/09:30pm 15.2 12.9 10.6 74 2.4 SSW 13 17 7 9 1017.1 1016.9 0.0
18/09:00pm 15.5 13.3 10.7 73 2.6 S 13 24 7 13 1016.9 1016.6 0.0
18/08:30pm 16.0 13.0 10.7 71 2.8 S 17 24 9 13 1016.5 1016.2 0.0
18/08:00pm 16.9 13.5 11.4 70 3.0 S 20 32 11 17 1016.3 1016.0 0.0
18/07:30pm 17.5 14.1 12.4 72 2.8 S 22 28 12 15 1016.0 1015.7 0.0
18/07:00pm 17.9 12.1 12.8 72 2.9 SSW 35 50 19 27 1015.5 1015.2 0.0
18/06:30pm 18.5 11.6 12.7 69 3.3 SSW 41 56 22 30 1015.4 1015.1 0.0
18/06:08pm 18.9 12.4 12.9 68 3.4 SSW 39 57 21 31 1015.5 1015.2 0.0
18/06:00pm 19.1 12.3 13.1 68 3.4 SSW 41 56 22 30 1015.4 1015.1 0.0
18/05:30pm 19.4 12.1 12.9 66 3.7 SSW 43 56 23 30 1015.5 1015.2 0.0
18/05:00pm 19.8 13.7 13.0 65 3.9 SSW 37 54 20 29 1015.5 1015.2 0.0
18/04:30pm 19.7 13.1 12.5 63 4.1 SSW 39 52 21 28 1015.7 1015.4 0.0
18/04:00pm 20.5 13.9 12.7 61 4.4 SSW 39 56 21 30 1015.9 1015.6 0.0
18/03:30pm 20.5 13.9 12.5 60 4.5 SSW 39 52 21 28 1016.2 1015.9 0.0
18/03:00pm 21.1 14.6 12.8 59 4.7 SSW 39 48 21 26 1016.7 1016.4 0.0
18/02:30pm 21.2 15.9 12.6 58 4.9 SSW 32 44 17 24 1016.9 1016.6 0.0
18/02:00pm 21.5 16.2 12.6 57 5.1 SW 32 41 17 22 1017.2 1017.0 0.0
18/01:30pm 21.5 16.6 12.6 57 5.1 SW 30 39 16 21 1017.3 1017.1 0.0
18/01:00pm 22.0 17.8 12.3 54 5.5 SW 26 35 14 19 1017.6 1017.4 0.0
18/12:30pm 21.9 18.1 12.5 55 5.4 SW 24 33 13 18 1017.9 1017.7 0.0
18/12:00pm 21.2 17.0 11.0 52 5.6 SW 24 32 13 17 1018.1 1017.9 0.0
18/11:30am 21.7 18.3 11.4 52 5.7 WSW 20 30 11 16 1018.3 1018.1 0.0
18/11:00am 21.4 18.9 10.9 51 5.8 WSW 15 24 8 13 1018.4 1018.2 0.0
18/10:30am 21.4 20.0 9.6 47 6.4 S 7 15 4 8 1018.5 1018.3 0.0
18/10:00am 20.0 17.3 10.4 54 5.2 E 15 19 8 10 1018.7 1018.5 0.0
18/09:30am 19.3 16.0 10.8 58 4.6 E 19 22 10 12 1018.8 1018.6 0.0
18/09:00am 18.7 15.4 10.8 60 4.3 E 19 26 10 14 1019.1 1018.8 0.0
18/08:30am 18.3 14.4 10.9 62 4.0 E 22 30 12 16 1018.8 1018.6 0.0
18/08:00am 17.5 13.2 10.6 64 3.7 E 24 33 13 18 1018.7 1018.5 0.0
18/07:30am 17.1 12.8 10.9 67 3.3 E 24 33 13 18 1018.7 1018.5 0.0
18/07:00am 16.2 12.0 11.2 72 2.7 E 24 32 13 17 1018.5 1018.3 0.0
18/06:30am 14.8 12.8 11.4 80 1.8 E 13 20 7 11 1018.1 1017.9 0.0
18/06:00am 12.5 9.7 9.9 84 1.3 ESE 15 17 8 9 1017.8 1017.6 0.0
18/05:30am 10.6 6.9 8.0 84 1.3 ESE 17 19 9 10 1017.4 1017.2 0.0
18/05:00am 9.8 7.4 6.9 82 1.4 SSE 9 11 5 6 1017.1 1016.9 0.0
18/04:30am 10.0 6.8 6.9 81 1.5 SE 13 19 7 10 1016.8 1016.5 0.0
18/04:00am 10.5 7.8 7.2 80 1.6 SSE 11 17 6 9 1016.6 1016.3 0.0
18/03:30am 10.9 7.8 7.4 79 1.7 S 13 15 7 8 1016.4 1016.1 0.0
18/03:00am 11.1 8.4 7.4 78 1.8 SSE 11 15 6 8 1016.4 1016.1 0.0
18/02:30am 11.3 8.1 7.0 75 2.1 S 13 17 7 9 1016.2 1015.9 0.0
18/02:00am 11.8 8.3 7.1 73 2.3 SSE 15 19 8 10 1016.2 1015.9 0.0
18/01:30am 12.3 8.8 7.4 72 2.4 SSE 15 20 8 11 1016.3 1016.0 0.0
18/01:00am 12.4 8.9 7.3 71 2.5 SSE 15 20 8 11 1016.4 1016.1 0.0
18/12:30am 12.8 8.9 7.3 69 2.7 SSE 17 24 9 13 1016.4 1016.1 0.0
18/12:00am 13.7 9.0 7.7 67 3.0 SSE 22 32 12 17 1016.6 1016.3 0.0
 
Date/Time
WST
Temp
°C
App
Temp
°C
Dew
Point
Rel
Hum
%
Delta-T
°C
Wind Press
QNH
hPa
Press
MSL
hPa
Rain
since 9 am
mm
Dir
 
Spd
km/h
Gust
km/h
Spd
kts
Gust
kts
17/11:30pm 13.9 9.2 7.7 66 3.1 S 22 32 12 17 1016.6 1016.3 0.0
17/11:00pm 14.1 8.2 7.6 65 3.2 S 28 35 15 19 1016.6 1016.3 0.0
17/10:30pm 14.1 8.6 7.6 65 3.2 S 26 39 14 21 1016.8 1016.5 0.0
17/10:00pm 14.1 8.7 7.9 66 3.1 S 26 35 14 19 1016.7 1016.4 0.0
17/09:30pm 14.3 9.3 8.0 66 3.2 S 24 30 13 16 1016.5 1016.2 0.0
17/09:00pm 14.5 8.7 7.8 64 3.3 S 28 35 15 19 1016.3 1016.0 0.0
17/08:30pm 14.7 9.7 8.0 64 3.4 S 24 33 13 18 1016.1 1015.8 0.0
17/08:00pm 15.2 10.4 8.9 66 3.2 S 24 30 13 16 1015.9 1015.6 0.0
17/07:30pm 15.9 9.6 9.1 64 3.5 S 32 44 17 24 1015.7 1015.4 0.0
17/07:00pm 16.7 10.6 9.6 63 3.7 SSW 32 43 17 23 1015.3 1015.0 0.0
17/06:30pm 17.5 10.5 8.6 56 4.6 SSW 35 46 19 25 1015.0 1014.7 0.0
17/06:00pm 18.3 11.3 8.6 53 5.0 SSW 35 46 19 25 1014.6 1014.3 0.0
17/05:30pm 19.0 12.8 9.5 54 5.0 SSW 32 44 17 24 1014.3 1014.0 0.0
17/05:00pm 19.1 12.2 10.4 57 4.7 SSW 37 52 20 28 1014.0 1013.7 0.0
17/04:30pm 19.0 11.9 9.5 54 5.0 SSW 37 54 20 29 1014.0 1013.7 0.0
17/04:00pm 19.7 12.7 10.1 54 5.2 SSW 37 50 20 27 1013.9 1013.6 0.0
17/03:30pm 20.0 13.1 10.4 54 5.2 SSW 37 52 20 28 1013.9 1013.6 0.0
17/03:25pm 20.0 13.6 10.7 55 5.1 SSW 35 54 19 29 1013.9 1013.6 0.0
17/03:00pm 20.1 13.9 10.2 53 5.4 SSW 33 44 18 24 1014.0 1013.7 0.0
17/02:30pm 20.4 14.3 10.5 53 5.4 SW 33 46 18 25 1014.1 1013.8 0.0
17/02:00pm 20.8 15.3 10.6 52 5.6 SW 30 43 16 23 1014.1 1013.8 0.0
17/01:30pm 20.1 14.0 9.7 51 5.6 SW 32 41 17 22 1014.1 1013.8 0.0
17/01:00pm 20.9 15.2 9.8 49 6.0 SSW 30 41 16 22 1014.2 1013.9 0.0
17/12:30pm 20.5 14.3 9.4 49 5.9 SSW 32 39 17 21 1014.4 1014.1 0.0
17/12:00pm 20.6 14.7 8.9 47 6.2 SSW 30 39 16 21 1014.5 1014.2 0.0
17/11:30am 20.8 15.4 8.1 44 6.6 SSW 26 35 14 19 1014.8 1014.5 0.0
17/11:00am 20.1 15.0 7.8 45 6.4 SW 24 37 13 20 1014.7 1014.4 0.0
17/10:30am 19.2 14.8 7.6 47 5.9 SW 20 30 11 16 1014.7 1014.4 0.0
17/10:00am 19.2 15.2 8.2 49 5.7 SW 19 28 10 15 1014.7 1014.4 0.0
17/09:30am 17.9 13.4 7.0 49 5.5 SSW 20 28 11 15 1014.7 1014.4 0.0
17/09:00am 17.3 13.3 6.8 50 5.2 SSW 17 22 9 12 1014.8 1014.5 0.0
17/08:30am 17.0 13.1 7.1 52 5.0 S 17 26 9 14 1014.7 1014.4 0.0
17/08:00am 16.6 12.3 7.0 53 4.8 SSE 19 26 10 14 1014.6 1014.3 0.0
17/07:30am 16.1 12.6 7.3 56 4.4 SSE 15 20 8 11 1014.3 1014.0 0.0
17/07:00am 15.6 12.3 8.1 61 3.8 SSE 15 19 8 10 1014.1 1013.8 0.0
17/06:30am 14.5 12.0 8.2 66 3.2 SSE 11 15 6 8 1013.8 1013.5 0.0
17/06:00am 14.2 11.6 7.7 65 3.2 SSE 11 15 6 8 1013.3 1013.0 0.0
17/05:30am 14.3 10.5 7.4 63 3.4 SSE 17 20 9 11 1013.0 1012.7 0.0
17/05:00am 14.6 11.2 7.6 63 3.5 S 15 19 8 10 1012.8 1012.5 0.0

Other Formats:

Comma delimited format used in spreadsheet applications
http://www.bom.gov.au/fwo/IDW60801/IDW60801.94600.axf

JavaScript Object Notation format (JSON) in row-major order
http://www.bom.gov.au/fwo/IDW60801/IDW60801.94600.json